モスクワ/シェレメーチエヴォ の空港の天気 - METARとTAF

シェレメーチエヴォ国際空港(モスクワ) ( UUEE / SVO ) - ロシア モスクワ
飛行場実況気象(Metar)
観測時間01/18 12:30 MSK (01/18 09:30 UTC)
風向・風速南東 5m/s
視程2800m
天気現象弱いしゅう雪
全天の8割程度の雲 雲底高度 400m
気温-8℃
湿度86%
気圧1008hPa
METARUUEE 180930Z 13005MPS 2800 -SHSN BKN013CB M08/M10 Q1008 R06L/450330 R06R/450330 TEMPO 1500 SN
過去の天気等 Google飛行場航空写真 Wunderground天気予報

過去48時間のMETAR

飛行場予報(TAF)
発表時間: 1/18 10:59 MSK (1/18 07:59 UTC)
予報対象時間: 18日12時 MSK ~ 19日12時 MSK
風向・風速東南東 7m/s
視程3,500m
天気現象弱い雪
全天を覆う雲 雲底高度 340m
18日12時 MSK ~ 18日23時 MSK に一時的に
風向・風速東南東 13m/s
視程900m
天気現象強いしゅう雪
全天の8割程度の雲 雲底高度 150m
全天の8割程度の積乱雲 雲底高度 370m
18日23時 MSK ~ 19日1時 MSK に徐々に
視程9,000m
天気現象運行に影響にある天気現象が終了
TAF UUEE 180759Z 1809/1909 12007MPS 3500 -SN OVC011 TXM05/1815Z TNM08/1809Z
TEMPO 1809/1820 12013MPS 0900 +SHSN BKN005 BKN012CB
BECMG 1820/1822 9000 NSW